Check out our new BloomSky Weather System.

Active alerts


No alerts


Thunder radar  blitzortung!


Rain radar more information rain snow radar


Visit our other weather sites:

Template documentation
and downloads

And another site



Weather Underground History page Text

Daily Summary for December 4, 2017 Units:  English    Metric   Both
« Previous Day
Next Day »
Daily Weekly Monthly Yearly Custom
  High: Low: Average:
Temperature: 80.2 °F 66.6 °F 71.8 °F
Dew Point: 74.3 °F 65.7 °F 69.6 °F
Humidity: 100 % 75 % 93 %
Wind Speed: 12.0 mph 0.0 mph 2.7 mph
Wind Gust: 18.0 mph - -
Wind:- - SSE
Pressure: 30.00 in 29.87 in -
Precipitation: 0.52 in    
Historical Graphs
 
 
Tabular Data for December 4, 2017
Time Temperature Dew Point Pressure Wind Wind Speed Wind Gust Humidity Rainfall Rate (Hourly)
00:03 67.3 °F 66.4 °F 30.00 in SE 5.0 mph 8.0 mph 97 % 0.00 in
00:08 67.3 °F 66.4 °F 29.99 in Calm   6.0 mph 97 % 0.00 in
00:13 67.3 °F 66.4 °F 30.00 in ESE 2.0 mph 6.0 mph 97 % 0.00 in
00:18 67.3 °F 66.4 °F 30.00 in SSE 3.0 mph 6.0 mph 97 % 0.00 in
00:23 67.3 °F 66.4 °F 30.00 in SE 2.0 mph 6.0 mph 97 % 0.00 in
00:28 67.3 °F 66.4 °F 30.00 in SE 2.0 mph 6.0 mph 97 % 0.00 in
00:33 67.3 °F 66.4 °F 30.00 in SE 1.0 mph 5.0 mph 97 % 0.00 in
00:38 67.3 °F 66.4 °F 30.00 in Calm   5.0 mph 97 % 0.00 in
00:43 67.1 °F 66.2 °F 30.00 in SE 1.0 mph 5.0 mph 97 % 0.00 in
00:48 67.1 °F 66.2 °F 29.99 in SSE 2.0 mph 4.0 mph 97 % 0.00 in
00:53 67.1 °F 66.2 °F 30.00 in Calm   5.0 mph 97 % 0.00 in
00:58 67.1 °F 66.2 °F 30.00 in South 1.0 mph 5.0 mph 97 % 0.00 in
01:03 67.1 °F 66.2 °F 30.00 in South 3.0 mph 5.0 mph 97 % 0.00 in
01:08 67.1 °F 66.2 °F 30.00 in South 2.0 mph 5.0 mph 97 % 0.00 in
01:13 67.1 °F 66.2 °F 29.99 in ESE 2.0 mph 5.0 mph 97 % 0.01 in
01:18 67.1 °F 66.2 °F 29.99 in South 1.0 mph 5.0 mph 97 % 0.01 in
01:23 66.9 °F 66.0 °F 29.99 in SSW 3.0 mph 4.0 mph 97 % 0.01 in
01:28 66.9 °F 66.0 °F 29.99 in South 4.0 mph 7.0 mph 97 % 0.01 in
01:33 66.9 °F 66.0 °F 29.99 in South 3.0 mph 7.0 mph 97 % 0.01 in
01:38 66.9 °F 66.0 °F 29.99 in South 2.0 mph 7.0 mph 97 % 0.01 in
01:43 66.9 °F 66.0 °F 29.99 in SSE 2.0 mph 7.0 mph 97 % 0.01 in
01:48 66.7 °F 65.8 °F 29.99 in SW 2.0 mph 5.0 mph 97 % 0.01 in
01:53 66.7 °F 65.8 °F 29.99 in SSW 1.0 mph 4.0 mph 97 % 0.01 in
01:58 66.7 °F 65.8 °F 29.99 in SW 1.0 mph 4.0 mph 97 % 0.02 in
02:08 66.6 °F 65.7 °F 29.99 in Calm   2.0 mph 97 % 0.02 in
02:13 66.6 °F 65.7 °F 29.98 in SW 1.0 mph 2.0 mph 97 % 0.01 in
02:18 66.6 °F 65.7 °F 29.98 in Calm   2.0 mph 97 % 0.01 in
02:23 66.6 °F 65.7 °F 29.97 in SE 1.0 mph 2.0 mph 97 % 0.01 in
02:28 66.6 °F 65.7 °F 29.97 in SE 2.0 mph 2.0 mph 97 % 0.01 in
02:32 66.6 °F 65.7 °F 29.97 in SSE 2.0 mph 3.0 mph 97 % 0.01 in
02:37 66.6 °F 66.0 °F 29.96 in SE 2.0 mph 4.0 mph 98 % 0.01 in
02:42 66.7 °F 66.2 °F 29.96 in SE 2.0 mph 6.0 mph 98 % 0.01 in
02:47 66.7 °F 66.2 °F 29.96 in SE 1.0 mph 6.0 mph 98 % 0.01 in
02:52 66.7 °F 66.2 °F 29.96 in SE 4.0 mph 6.0 mph 98 % 0.01 in
02:57 66.9 °F 66.4 °F 29.96 in SE 2.0 mph 6.0 mph 98 % 0.00 in
03:02 66.9 °F 66.4 °F 29.96 in SSE 3.0 mph 6.0 mph 98 % 0.00 in
03:07 67.1 °F 66.6 °F 29.96 in SE 4.0 mph 6.0 mph 98 % 0.00 in
03:12 67.1 °F 66.6 °F 29.95 in SE 2.0 mph 6.0 mph 98 % 0.00 in
03:17 67.3 °F 66.7 °F 29.95 in SE 2.0 mph 6.0 mph 98 % 0.00 in
03:22 67.3 °F 66.7 °F 29.95 in SSE 5.0 mph 6.0 mph 98 % 0.00 in
03:27 67.5 °F 66.9 °F 29.95 in SSE 2.0 mph 6.0 mph 98 % 0.00 in
03:32 67.5 °F 66.9 °F 29.95 in South 1.0 mph 6.0 mph 98 % 0.00 in
03:38 67.5 °F 66.9 °F 29.94 in SE 2.0 mph 6.0 mph 98 % 0.00 in
03:43 67.6 °F 67.1 °F 29.94 in ESE 4.0 mph 7.0 mph 98 % 0.00 in
03:48 67.6 °F 67.1 °F 29.94 in SE 2.0 mph 7.0 mph 98 % 0.00 in
03:53 67.8 °F 67.3 °F 29.94 in SE 3.0 mph 7.0 mph 98 % 0.00 in
03:54 67.8 °F 67.3 °F 29.94 in SE 3.0 mph 7.0 mph 98 % 0.00 in
04:02 67.8 °F 67.3 °F 29.94 in SSE 4.0 mph 7.0 mph 98 % 0.00 in
04:07 67.8 °F 67.3 °F 29.94 in SE 5.0 mph 7.0 mph 98 % 0.00 in
04:12 68.0 °F 67.5 °F 29.94 in South 4.0 mph 7.0 mph 98 % 0.00 in
04:17 68.0 °F 67.5 °F 29.93 in SE 4.0 mph 7.0 mph 98 % 0.00 in
04:23 68.0 °F 67.5 °F 29.93 in SSE 4.0 mph 8.0 mph 98 % 0.00 in
04:28 68.2 °F 67.6 °F 29.93 in SSE 2.0 mph 8.0 mph 98 % 0.00 in
04:33 68.0 °F 67.5 °F 29.93 in SSE 2.0 mph 8.0 mph 98 % 0.00 in
04:43 68.0 °F 67.6 °F 29.93 in SSE 6.0 mph 6.0 mph 99 % 0.00 in
04:44 68.0 °F 67.6 °F 29.93 in SSE 4.0 mph 6.0 mph 99 % 0.00 in
04:52 68.0 °F 67.6 °F 29.93 in SSE 2.0 mph 8.0 mph 99 % 0.00 in
04:57 68.0 °F 67.6 °F 29.93 in SSW 4.0 mph 8.0 mph 99 % 0.00 in
05:01 68.0 °F 67.6 °F 29.93 in SSE 3.0 mph 5.0 mph 99 % 0.00 in
05:02 68.0 °F 67.6 °F 29.93 in South 4.0 mph 5.0 mph 99 % 0.00 in
05:07 68.0 °F 67.6 °F 29.93 in SSE 3.0 mph 7.0 mph 99 % 0.00 in
05:12 67.8 °F 67.5 °F 29.93 in SSE 1.0 mph 7.0 mph 99 % 0.00 in
05:18 67.8 °F 67.5 °F 29.94 in SE 1.0 mph 7.0 mph 99 % 0.00 in
05:23 67.8 °F 67.5 °F 29.94 in SSE 2.0 mph 5.0 mph 99 % 0.00 in
05:28 67.6 °F 67.3 °F 29.94 in SSE 3.0 mph 4.0 mph 99 % 0.00 in
05:33 67.6 °F 67.3 °F 29.94 in SE 1.0 mph 4.0 mph 99 % 0.00 in
05:38 67.6 °F 67.3 °F 29.94 in South 3.0 mph 4.0 mph 99 % 0.00 in
05:43 67.6 °F 67.3 °F 29.94 in SSE 1.0 mph 4.0 mph 99 % 0.00 in
05:48 67.6 °F 67.3 °F 29.94 in SSE 1.0 mph 4.0 mph 99 % 0.00 in
05:53 67.6 °F 67.3 °F 29.94 in SE 1.0 mph 4.0 mph 99 % 0.00 in
05:58 67.6 °F 67.3 °F 29.94 in South 2.0 mph 4.0 mph 99 % 0.00 in
06:00 67.6 °F 67.3 °F 29.94 in SE 1.0 mph 4.0 mph 99 % 0.00 in
06:12 67.8 °F 67.5 °F 29.94 in SSW 1.0 mph 3.0 mph 99 % 0.00 in
06:17 67.6 °F 67.3 °F 29.95 in Calm   3.0 mph 99 % 0.00 in
06:22 67.6 °F 67.3 °F 29.95 in SE 1.0 mph 3.0 mph 99 % 0.00 in
06:23 67.6 °F 67.3 °F 29.95 in Calm   3.0 mph 99 % 0.00 in
06:32 67.8 °F 67.5 °F 29.95 in SSE 1.0 mph 4.0 mph 99 % 0.00 in
06:37 67.8 °F 67.5 °F 29.95 in ESE 1.0 mph 4.0 mph 99 % 0.00 in
06:42 67.8 °F 67.5 °F 29.96 in ESE 1.0 mph 3.0 mph 99 % 0.00 in
06:47 67.8 °F 67.5 °F 29.96 in SE 2.0 mph 3.0 mph 99 % 0.00 in
06:52 67.8 °F 67.5 °F 29.96 in SSE 1.0 mph 3.0 mph 99 % 0.00 in
06:53 67.8 °F 67.5 °F 29.96 in SSE 1.0 mph 3.0 mph 99 % 0.00 in
07:02 67.8 °F 67.5 °F 29.96 in Calm   4.0 mph 99 % 0.00 in
07:07 67.6 °F 67.3 °F 29.96 in SE 1.0 mph 4.0 mph 99 % 0.00 in
07:08 67.6 °F 67.3 °F 29.96 in SE 1.0 mph 4.0 mph 99 % 0.00 in
07:17 67.6 °F 67.3 °F 29.96 in Calm   3.0 mph 99 % 0.00 in
07:22 67.6 °F 67.3 °F 29.96 in SE 1.0 mph 2.0 mph 99 % 0.00 in
07:27 67.6 °F 67.3 °F 29.96 in Calm   2.0 mph 99 % 0.00 in
07:28 67.6 °F 67.3 °F 29.96 in SE 1.0 mph 2.0 mph 99 % 0.00 in
07:33 67.8 °F 67.5 °F 29.96 in Calm   2.0 mph 99 % 0.00 in
07:38 68.0 °F 67.6 °F 29.96 in SSE 1.0 mph 2.0 mph 99 % 0.00 in
07:43 68.2 °F 67.8 °F 29.97 in SE 1.0 mph 2.0 mph 99 % 0.00 in
07:48 68.4 °F 68.4 °F 29.96 in SSE 1.0 mph 2.0 mph 100 % 0.00 in
07:53 68.5 °F 68.2 °F 29.96 in ESE 1.0 mph 3.0 mph 99 % 0.00 in
07:58 68.7 °F 68.7 °F 29.96 in Calm   3.0 mph 100 % 0.00 in
08:03 69.3 °F 69.3 °F 29.96 in SSE 1.0 mph 3.0 mph 100 % 0.00 in
08:08 69.4 °F 69.4 °F 29.97 in South 1.0 mph 4.0 mph 100 % 0.00 in
08:13 69.6 °F 69.3 °F 29.97 in SSE 2.0 mph 4.0 mph 99 % 0.00 in
08:18 70.0 °F 70.0 °F 29.97 in SSE 2.0 mph 4.0 mph 100 % 0.00 in
08:23 70.3 °F 70.0 °F 29.97 in ESE 2.0 mph 4.0 mph 99 % 0.00 in
08:28 70.5 °F 70.2 °F 29.97 in SSE 4.0 mph 5.0 mph 99 % 0.00 in
08:34 70.9 °F 70.5 °F 29.98 in SSW 3.0 mph 6.0 mph 99 % 0.00 in
08:39 71.2 °F 70.9 °F 29.98 in SE 3.0 mph 6.0 mph 99 % 0.00 in
08:44 71.6 °F 71.1 °F 29.97 in SSE 5.0 mph 7.0 mph 98 % 0.00 in
08:49 71.8 °F 71.2 °F 29.97 in ESE 2.0 mph 8.0 mph 98 % 0.00 in
08:54 72.3 °F 71.8 °F 29.98 in South 4.0 mph 8.0 mph 98 % 0.00 in
08:59 72.9 °F 72.0 °F 29.98 in SSE 5.0 mph 8.0 mph 97 % 0.00 in
09:09 73.8 °F 72.3 °F 29.98 in SSE 5.0 mph 10.0 mph 95 % 0.01 in
09:14 74.1 °F 72.3 °F 29.98 in SE 6.0 mph 10.0 mph 94 % 0.01 in
10:36 77.7 °F 72.5 °F 29.97 in SSE 9.0 mph 15.0 mph 84 % 0.00 in
10:41 77.7 °F 71.8 °F 29.97 in SSW 10.0 mph 15.0 mph 82 % 0.00 in
10:46 77.7 °F 72.1 °F 29.98 in SSW 8.0 mph 13.0 mph 83 % 0.00 in
10:48 77.7 °F 71.8 °F 29.97 in SSW 6.0 mph 13.0 mph 82 % 0.00 in
10:52 77.7 °F 71.8 °F 29.97 in South 3.0 mph 13.0 mph 82 % 0.00 in
10:57 77.7 °F 71.8 °F 29.97 in SSW 9.0 mph 12.0 mph 82 % 0.00 in
11:02 77.7 °F 71.8 °F 29.97 in South 3.0 mph 12.0 mph 82 % 0.00 in
11:07 77.7 °F 71.8 °F 29.97 in South 8.0 mph 12.0 mph 82 % 0.00 in
11:12 77.5 °F 71.6 °F 29.97 in SSE 7.0 mph 12.0 mph 82 % 0.00 in
11:17 78.1 °F 71.8 °F 29.96 in SSW 7.0 mph 12.0 mph 81 % 0.00 in
11:22 78.4 °F 71.4 °F 29.96 in SE 10.0 mph 14.0 mph 79 % 0.00 in
11:27 78.8 °F 72.1 °F 29.96 in SE 8.0 mph 15.0 mph 80 % 0.00 in
11:32 79.3 °F 72.0 °F 29.96 in South 8.0 mph 15.0 mph 78 % 0.00 in
11:37 79.2 °F 71.2 °F 29.95 in SSW 7.0 mph 15.0 mph 77 % 0.00 in
11:42 78.8 °F 71.4 °F 29.95 in South 7.0 mph 15.0 mph 78 % 0.00 in
11:47 78.8 °F 72.1 °F 29.94 in SSE 6.0 mph 14.0 mph 80 % 0.00 in
11:52 79.3 °F 71.4 °F 29.94 in SSW 9.0 mph 14.0 mph 77 % 0.00 in
11:57 79.0 °F 71.1 °F 29.93 in South 5.0 mph 13.0 mph 77 % 0.00 in
12:02 78.6 °F 70.9 °F 29.93 in SW 8.0 mph 13.0 mph 77 % 0.00 in
12:07 78.8 °F 72.1 °F 29.93 in South 7.0 mph 13.0 mph 80 % 0.00 in
12:12 78.4 °F 71.8 °F 29.93 in South 6.0 mph 11.0 mph 80 % 0.00 in
12:17 78.4 °F 72.1 °F 29.92 in SSW 3.0 mph 11.0 mph 81 % 0.00 in
12:22 78.4 °F 71.4 °F 29.92 in SSE 3.0 mph 10.0 mph 79 % 0.00 in
12:27 78.6 °F 71.6 °F 29.92 in SE 8.0 mph 10.0 mph 79 % 0.00 in
12:32 79.0 °F 71.6 °F 29.92 in South 4.0 mph 10.0 mph 78 % 0.00 in
12:37 79.3 °F 72.0 °F 29.92 in ESE 8.0 mph 11.0 mph 78 % 0.00 in
12:42 80.1 °F 71.8 °F 29.91 in SSE 11.0 mph 12.0 mph 76 % 0.00 in
12:47 80.1 °F 71.8 °F 29.91 in SSW 5.0 mph 13.0 mph 76 % 0.00 in
12:52 80.2 °F 71.6 °F 29.90 in South 5.0 mph 13.0 mph 75 % 0.00 in
12:57 80.1 °F 71.4 °F 29.90 in WSW 5.0 mph 13.0 mph 75 % 0.00 in
13:02 79.9 °F 71.6 °F 29.90 in SE 2.0 mph 12.0 mph 76 % 0.00 in
13:12 79.2 °F 72.1 °F 29.90 in SSE 5.0 mph 12.0 mph 79 % 0.00 in
13:14 78.6 °F 72.0 °F 29.90 in SSW 4.0 mph 12.0 mph 80 % 0.00 in
13:18 78.3 °F 72.0 °F 29.90 in SSE 6.0 mph 10.0 mph 81 % 0.00 in
13:27 77.4 °F 72.1 °F 29.90 in Calm   10.0 mph 84 % 0.09 in
13:32 76.5 °F 72.3 °F 29.89 in SSW 8.0 mph 9.0 mph 87 % 0.10 in
13:34 76.3 °F 72.1 °F 29.89 in SE 7.0 mph 9.0 mph 87 % 0.10 in
13:37 76.3 °F 71.8 °F 29.89 in SSW 12.0 mph 15.0 mph 86 % 0.11 in
13:42 75.9 °F 72.1 °F 29.89 in Calm   15.0 mph 88 % 0.12 in
13:49 75.9 °F 72.5 °F 29.89 in South 4.0 mph 15.0 mph 89 % 0.13 in
13:52 76.1 °F 72.9 °F 29.89 in South 3.0 mph 13.0 mph 90 % 0.13 in
13:54 76.3 °F 73.0 °F 29.89 in SSW 5.0 mph 13.0 mph 90 % 0.13 in
13:59 77.2 °F 73.9 °F 29.89 in SSW 4.0 mph 7.0 mph 90 % 0.13 in
14:04 78.1 °F 74.3 °F 29.88 in SSW 2.0 mph 7.0 mph 88 % 0.13 in
14:13 78.8 °F 73.6 °F 29.88 in SE 2.0 mph 7.0 mph 84 % 0.13 in
14:19 79.2 °F 72.5 °F 29.89 in SE 6.0 mph 8.0 mph 80 % 0.13 in
14:24 79.5 °F 72.9 °F 29.89 in South 7.0 mph 13.0 mph 80 % 0.04 in
14:30 80.1 °F 73.0 °F 29.88 in SW 9.0 mph 13.0 mph 79 % 0.04 in
14:35 80.1 °F 72.1 °F 29.89 in SE 7.0 mph 13.0 mph 77 % 0.03 in
14:40 80.2 °F 72.3 °F 29.89 in SSW 5.0 mph 13.0 mph 77 % 0.02 in
14:45 80.1 °F 71.4 °F 29.88 in SSW 4.0 mph 13.0 mph 75 % 0.01 in
14:50 79.5 °F 71.2 °F 29.88 in SE 3.0 mph 13.0 mph 76 % 0.00 in
14:55 79.5 °F 70.9 °F 29.88 in SSE 5.0 mph 13.0 mph 75 % 0.00 in
15:00 79.3 °F 71.1 °F 29.88 in SW 6.0 mph 10.0 mph 76 % 0.00 in
15:05 79.2 °F 71.2 °F 29.88 in SSW 7.0 mph 10.0 mph 77 % 0.00 in
15:10 79.2 °F 71.2 °F 29.88 in SSW 8.0 mph 11.0 mph 77 % 0.00 in
15:15 79.2 °F 70.9 °F 29.88 in SE 7.0 mph 12.0 mph 76 % 0.00 in
15:20 79.2 °F 70.9 °F 29.88 in SE 3.0 mph 12.0 mph 76 % 0.00 in
15:25 78.6 °F 71.2 °F 29.89 in SSW 5.0 mph 17.0 mph 78 % 0.08 in
15:30 76.8 °F 71.2 °F 29.88 in SSW 2.0 mph 17.0 mph 83 % 0.13 in
15:35 75.9 °F 71.4 °F 29.88 in SSW 4.0 mph 17.0 mph 86 % 0.13 in
15:40 75.7 °F 71.6 °F 29.88 in South 3.0 mph 7.0 mph 87 % 0.13 in
15:45 75.7 °F 72.0 °F 29.88 in South 1.0 mph 7.0 mph 88 % 0.13 in
15:50 75.6 °F 72.1 °F 29.88 in SSW 1.0 mph 6.0 mph 89 % 0.13 in
15:55 75.7 °F 72.3 °F 29.88 in South 1.0 mph 4.0 mph 89 % 0.13 in
16:00 75.7 °F 72.3 °F 29.88 in SSW 2.0 mph 4.0 mph 89 % 0.13 in
16:05 75.6 °F 72.1 °F 29.87 in SSW 3.0 mph 6.0 mph 89 % 0.13 in
16:10 75.6 °F 72.1 °F 29.87 in SSW 2.0 mph 6.0 mph 89 % 0.13 in
16:15 75.6 °F 72.1 °F 29.87 in Calm   6.0 mph 89 % 0.13 in
16:20 75.6 °F 72.1 °F 29.87 in SE 3.0 mph 5.0 mph 89 % 0.13 in
16:25 75.6 °F 72.1 °F 29.87 in SW 2.0 mph 5.0 mph 89 % 0.05 in
16:30 75.4 °F 72.0 °F 29.88 in South 1.0 mph 4.0 mph 89 % 0.00 in
16:35 75.4 °F 72.0 °F 29.89 in SW 6.0 mph 6.0 mph 89 % 0.00 in
16:40 74.1 °F 70.0 °F 29.90 in South 8.0 mph 18.0 mph 87 % 0.10 in
16:45 72.1 °F 68.4 °F 29.89 in Calm   18.0 mph 88 % 0.22 in
16:50 71.2 °F 68.2 °F 29.88 in SE 2.0 mph 18.0 mph 90 % 0.23 in
16:55 70.9 °F 68.4 °F 29.89 in SSE 2.0 mph 13.0 mph 92 % 0.23 in
17:00 70.9 °F 68.4 °F 29.89 in ENE 1.0 mph 4.0 mph 92 % 0.23 in
17:05 70.5 °F 68.4 °F 29.89 in Calm   4.0 mph 93 % 0.23 in
17:10 70.3 °F 68.5 °F 29.89 in Calm   3.0 mph 94 % 0.23 in
17:15 70.0 °F 68.2 °F 29.90 in Calm   3.0 mph 94 % 0.23 in
17:20 70.0 °F 68.5 °F 29.89 in Calm   2.0 mph 95 % 0.23 in
17:25 70.2 °F 68.9 °F 29.89 in Calm   2.0 mph 96 % 0.23 in
17:28 70.2 °F 68.9 °F 29.89 in East 1.0 mph 2.0 mph 96 % 0.23 in
17:32 70.3 °F 69.1 °F 29.89 in ESE 2.0 mph 2.0 mph 96 % 0.23 in
17:37 70.9 °F 70.0 °F 29.88 in SE 2.0 mph 5.0 mph 97 % 0.23 in
17:42 71.2 °F 70.3 °F 29.89 in East 3.0 mph 5.0 mph 97 % 0.13 in
17:47 71.8 °F 71.2 °F 29.89 in SSE 4.0 mph 5.0 mph 98 % 0.01 in
17:52 72.0 °F 71.4 °F 29.89 in SSE 3.0 mph 6.0 mph 98 % 0.00 in
17:57 72.0 °F 71.4 °F 29.89 in SSE 1.0 mph 7.0 mph 98 % 0.00 in
18:02 72.0 °F 71.4 °F 29.89 in East 1.0 mph 8.0 mph 98 % 0.00 in
18:07 72.0 °F 71.4 °F 29.90 in SE 5.0 mph 8.0 mph 98 % 0.00 in
18:12 72.0 °F 71.4 °F 29.90 in SE 4.0 mph 8.0 mph 98 % 0.00 in
18:17 72.0 °F 71.4 °F 29.89 in SSE 3.0 mph 6.0 mph 98 % 0.00 in
18:22 72.1 °F 71.6 °F 29.90 in ESE 1.0 mph 6.0 mph 98 % 0.00 in
18:28 72.1 °F 71.6 °F 29.90 in SE 1.0 mph 5.0 mph 98 % 0.00 in
18:33 72.1 °F 71.6 °F 29.90 in SE 3.0 mph 5.0 mph 98 % 0.00 in
18:35 72.1 °F 71.6 °F 29.90 in SE 2.0 mph 6.0 mph 98 % 0.00 in
18:40 72.1 °F 71.6 °F 29.90 in South 5.0 mph 7.0 mph 98 % 0.00 in
18:45 72.3 °F 71.8 °F 29.90 in SE 2.0 mph 7.0 mph 98 % 0.00 in
18:50 72.1 °F 71.2 °F 29.91 in SE 1.0 mph 7.0 mph 97 % 0.00 in
18:55 72.3 °F 71.4 °F 29.91 in SE 1.0 mph 6.0 mph 97 % 0.00 in
19:00 72.1 °F 71.2 °F 29.91 in ESE 3.0 mph 5.0 mph 97 % 0.00 in
19:05 72.3 °F 71.4 °F 29.91 in ESE 3.0 mph 4.0 mph 97 % 0.00 in
19:10 72.1 °F 71.2 °F 29.92 in SSE 1.0 mph 6.0 mph 97 % 0.00 in
19:15 72.1 °F 71.2 °F 29.92 in SSE 2.0 mph 6.0 mph 97 % 0.00 in
19:20 72.1 °F 71.2 °F 29.92 in SE 1.0 mph 6.0 mph 97 % 0.00 in
19:25 72.0 °F 71.1 °F 29.92 in ESE 2.0 mph 5.0 mph 97 % 0.00 in
19:30 72.0 °F 71.1 °F 29.92 in SE 1.0 mph 6.0 mph 97 % 0.00 in
19:35 71.8 °F 70.9 °F 29.92 in ESE 5.0 mph 6.0 mph 97 % 0.00 in
19:40 71.8 °F 70.9 °F 29.92 in SSE 3.0 mph 7.0 mph 97 % 0.00 in
19:45 71.6 °F 70.7 °F 29.92 in SSE 2.0 mph 7.0 mph 97 % 0.00 in
19:50 71.4 °F 70.5 °F 29.93 in SSE 2.0 mph 7.0 mph 97 % 0.00 in
19:55 71.4 °F 70.5 °F 29.93 in SE 1.0 mph 6.0 mph 97 % 0.00 in
20:01 71.4 °F 70.5 °F 29.93 in SSW 2.0 mph 6.0 mph 97 % 0.00 in
20:06 71.2 °F 70.3 °F 29.93 in ESE 1.0 mph 6.0 mph 97 % 0.00 in
20:11 71.2 °F 70.3 °F 29.93 in SE 2.0 mph 4.0 mph 97 % 0.00 in
20:16 71.2 °F 70.3 °F 29.93 in ESE 1.0 mph 4.0 mph 97 % 0.00 in
20:21 71.1 °F 70.2 °F 29.94 in SSE 2.0 mph 3.0 mph 97 % 0.00 in
20:26 71.1 °F 70.2 °F 29.93 in SE 2.0 mph 3.0 mph 97 % 0.00 in
20:31 71.1 °F 70.2 °F 29.93 in ESE 2.0 mph 3.0 mph 97 % 0.00 in
20:36 71.1 °F 70.2 °F 29.94 in SE 1.0 mph 3.0 mph 97 % 0.00 in
20:41 71.1 °F 70.2 °F 29.94 in SSW 1.0 mph 3.0 mph 97 % 0.00 in
20:46 71.1 °F 70.2 °F 29.94 in SE 1.0 mph 3.0 mph 97 % 0.00 in
20:51 71.1 °F 70.2 °F 29.94 in SE 2.0 mph 3.0 mph 97 % 0.00 in
20:56 71.1 °F 70.5 °F 29.94 in Calm   3.0 mph 98 % 0.00 in
21:01 71.1 °F 70.5 °F 29.94 in Calm   2.0 mph 98 % 0.00 in
21:06 71.1 °F 70.5 °F 29.95 in Calm   2.0 mph 98 % 0.00 in
21:12 71.1 °F 70.5 °F 29.95 in Calm   1.0 mph 98 % 0.00 in
21:17 71.1 °F 70.5 °F 29.95 in Calm   3.0 mph 98 % 0.00 in
21:20 71.1 °F 70.5 °F 29.95 in SE 1.0 mph 3.0 mph 98 % 0.00 in
21:25 71.1 °F 70.5 °F 29.95 in Calm   3.0 mph 98 % 0.00 in
21:30 71.1 °F 70.5 °F 29.95 in Calm   3.0 mph 98 % 0.00 in
21:35 71.1 °F 70.5 °F 29.95 in SSW 1.0 mph 2.0 mph 98 % 0.00 in
21:41 71.2 °F 70.7 °F 29.95 in Calm   2.0 mph 98 % 0.00 in
21:46 71.2 °F 70.7 °F 29.95 in Calm   2.0 mph 98 % 0.00 in
21:51 71.2 °F 70.7 °F 29.95 in Calm   2.0 mph 98 % 0.00 in
21:56 71.2 °F 70.7 °F 29.95 in Calm   2.0 mph 98 % 0.00 in
22:01 71.1 °F 70.5 °F 29.95 in Calm   2.0 mph 98 % 0.00 in
22:06 71.1 °F 70.5 °F 29.96 in Calm   2.0 mph 98 % 0.00 in
22:07 71.1 °F 70.5 °F 29.96 in Calm   2.0 mph 98 % 0.00 in
22:12 71.2 °F 70.7 °F 29.96 in South 3.0 mph 3.0 mph 98 % 0.00 in
22:17 71.2 °F 70.7 °F 29.96 in South 4.0 mph 6.0 mph 98 % 0.00 in
22:22 71.4 °F 70.9 °F 29.96 in South 1.0 mph 6.0 mph 98 % 0.00 in
22:27 71.4 °F 70.9 °F 29.96 in SE 1.0 mph 6.0 mph 98 % 0.00 in
22:32 71.4 °F 70.9 °F 29.96 in SE 1.0 mph 4.0 mph 98 % 0.00 in
22:37 71.2 °F 70.7 °F 29.96 in Calm   3.0 mph 98 % 0.00 in
22:42 71.2 °F 70.7 °F 29.96 in Calm   1.0 mph 98 % 0.00 in
22:47 71.2 °F 70.7 °F 29.96 in SE 1.0 mph 2.0 mph 98 % 0.00 in
22:52 71.2 °F 70.7 °F 29.96 in SE 1.0 mph 2.0 mph 98 % 0.00 in
22:57 71.2 °F 70.7 °F 29.96 in Calm   2.0 mph 98 % 0.00 in
23:02 71.1 °F 70.5 °F 29.96 in Calm   2.0 mph 98 % 0.00 in
23:07 71.1 °F 70.5 °F 29.96 in Calm   2.0 mph 98 % 0.00 in
23:12 70.9 °F 70.3 °F 29.96 in SE 1.0 mph 2.0 mph 98 % 0.00 in
23:17 70.9 °F 70.3 °F 29.96 in Calm   2.0 mph 98 % 0.00 in
23:22 70.7 °F 70.2 °F 29.96 in Calm   2.0 mph 98 % 0.00 in
23:27 70.5 °F 70.0 °F 29.96 in Calm   2.0 mph 98 % 0.00 in
23:32 70.5 °F 70.0 °F 29.96 in Calm   1.0 mph 98 % 0.00 in
23:37 70.5 °F 70.0 °F 29.96 in SSW 1.0 mph 1.0 mph 98 % 0.00 in
23:43 70.5 °F 70.2 °F 29.96 in Calm   2.0 mph 99 % 0.00 in
23:48 70.5 °F 70.2 °F 29.96 in SSW 3.0 mph 3.0 mph 99 % 0.00 in
23:53 70.7 °F 70.3 °F 29.96 in South 2.0 mph 5.0 mph 99 % 0.00 in
23:58 70.9 °F 70.5 °F 29.96 in SE 1.0 mph 5.0 mph 99 % 0.00 in
Spring, Texas: Villages of Bridgestone
Compliments of Weather Underground - 2.75 mb

Script developed by  Jim McMurry - jmcmurry@mwt.net Adapted for the template by  Wim van der Kuil - Leuven-Template.eu

You find our weather info also at:

UK Metoffice

WeatherCloud

Weather Underground

Mid-South Weather Network

AWEKAS

Citizen Weather Observer Program (CWOP)

HAMweather, WeatherForYou, PWS Weather

Equipment we use:

Weather-station
Davis Vantage Vue

Weather-program
Meteohub

Weather-server
Debian 7.9 x86 (Guest)

Provider
DreamHost

Davis Vantage Vue

Meteohub

Debian 7.9 x86 (Guest)

DreamHost